EWG17M LIRP-EDDH
Flight info
| Callsign | EWG17M |
|---|---|
| Flight time | 1h 38m |
| Altitude | 18000 |
| Route | BEROK L153 OSBUL/N0445F380 DCT TAGIP DCT BRENO DCT KONIN DCT KEMES DCT GASKA DCT ELNAT P605 NOLGO NOLGO3P |
| Aircraft | A21N/M-SDE2E3FGHIRWXY/LB1 |
Departure
| Time | 2026-04-24 14:39 |
|---|---|
| Airport | Pisa International Airport (LIRP) |
Arrival
| Time | 2026-04-24 16:17 |
|---|---|
| Airport | Hamburg Helmut Schmidt Airport (EDDH) |
| Time | Latitude | Longitude | Altitude | Speed | Heading |
|---|---|---|---|---|---|
| 2026-04-24 14:23 | 43.69763 | 10.39973 | 17 ft | 0 kts | 8° |
| 2026-04-24 14:33 | 43.69751 | 10.39971 | 17 ft | 2 kts | 11° |
| 2026-04-24 14:33 | 43.69745 | 10.39969 | 17 ft | 2 kts | 12° |
| 2026-04-24 14:33 | 43.69730 | 10.39964 | 20 ft | 2 kts | 17° |
| 2026-04-24 14:34 | 43.69715 | 10.39956 | 22 ft | 2 kts | 28° |
| 2026-04-24 14:34 | 43.69702 | 10.39942 | 18 ft | 2 kts | 53° |
| 2026-04-24 14:34 | 43.69696 | 10.39921 | 19 ft | 2 kts | 87° |
| 2026-04-24 14:34 | 43.69696 | 10.39908 | 21 ft | 1 kts | 97° |
| 2026-04-24 14:35 | 43.69696 | 10.39907 | 21 ft | 0 kts | 99° |
| 2026-04-24 14:35 | 43.69694 | 10.39922 | 19 ft | 3 kts | 99° |
| 2026-04-24 14:36 | 43.69686 | 10.39996 | 20 ft | 12 kts | 101° |
| 2026-04-24 14:36 | 43.69636 | 10.40052 | 19 ft | 12 kts | 166° |
| 2026-04-24 14:36 | 43.69532 | 10.40075 | 19 ft | 17 kts | 171° |
| 2026-04-24 14:36 | 43.69400 | 10.40104 | 22 ft | 13 kts | 160° |
| 2026-04-24 14:37 | 43.69334 | 10.40194 | 19 ft | 5 kts | 127° |
| 2026-04-24 14:37 | 43.69325 | 10.40211 | 18 ft | 0 kts | 127° |
| 2026-04-24 14:38 | 43.69314 | 10.40231 | 18 ft | 9 kts | 127° |
| 2026-04-24 14:38 | 43.69255 | 10.40306 | 13 ft | 12 kts | 174° |
| 2026-04-24 14:38 | 43.69152 | 10.40223 | 14 ft | 37 kts | 217° |
| 2026-04-24 14:38 | 43.68729 | 10.39787 | 13 ft | 115 kts | 217° |
| 2026-04-24 14:39 | 43.67904 | 10.38947 | 217 ft | 163 kts | 222° |
| 2026-04-24 14:39 | 43.66967 | 10.37996 | 954 ft | 170 kts | 217° |
| 2026-04-24 14:39 | 43.65984 | 10.37101 | 1806 ft | 172 kts | 216° |
| 2026-04-24 14:39 | 43.64955 | 10.36186 | 2624 ft | 183 kts | 220° |
| 2026-04-24 14:40 | 43.63836 | 10.35030 | 3057 ft | 220 kts | 221° |
| 2026-04-24 14:40 | 43.62525 | 10.33671 | 3621 ft | 249 kts | 216° |
| 2026-04-24 14:40 | 43.60835 | 10.32864 | 3941 ft | 265 kts | 188° |
| 2026-04-24 14:40 | 43.58995 | 10.33222 | 3985 ft | 273 kts | 160° |
| 2026-04-24 14:41 | 43.57461 | 10.34774 | 4362 ft | 286 kts | 130° |
| 2026-04-24 14:41 | 43.56597 | 10.37239 | 5479 ft | 286 kts | 101° |
| 2026-04-24 14:41 | 43.56607 | 10.39933 | 6809 ft | 277 kts | 73° |
| 2026-04-24 14:41 | 43.57455 | 10.42237 | 8199 ft | 267 kts | 46° |
| 2026-04-24 14:42 | 43.58381 | 10.43345 | 9034 ft | 266 kts | 30° |
| 2026-04-24 14:42 | 43.60758 | 10.44137 | 10554 ft | 271 kts | 356° |
| 2026-04-24 14:42 | 43.62624 | 10.43423 | 11117 ft | 297 kts | 337° |
| 2026-04-24 14:42 | 43.64581 | 10.42170 | 11524 ft | 324 kts | 340° |
| 2026-04-24 14:43 | 43.66831 | 10.41397 | 12086 ft | 340 kts | 354° |
| 2026-04-24 14:43 | 43.69207 | 10.41051 | 12924 ft | 349 kts | 351° |
| 2026-04-24 14:43 | 43.71598 | 10.40305 | 13837 ft | 355 kts | 350° |
| 2026-04-24 14:43 | 43.74061 | 10.39720 | 14579 ft | 362 kts | 352° |
| 2026-04-24 14:44 | 43.76587 | 10.39274 | 15345 ft | 368 kts | 355° |
| 2026-04-24 14:44 | 43.79136 | 10.38936 | 16241 ft | 369 kts | 357° |
| 2026-04-24 14:44 | 43.81720 | 10.38651 | 17041 ft | 375 kts | 357° |
| 2026-04-24 14:44 | 43.84345 | 10.38397 | 17771 ft | 381 kts | 358° |
| 2026-04-24 14:45 | 43.86974 | 10.38162 | 18505 ft | 385 kts | 358° |
| 2026-04-24 14:45 | 43.89671 | 10.37933 | 19180 ft | 389 kts | 358° |
| 2026-04-24 14:45 | 43.92392 | 10.37706 | 19794 ft | 394 kts | 358° |
| 2026-04-24 14:45 | 43.95144 | 10.37479 | 20429 ft | 397 kts | 358° |
| 2026-04-24 14:46 | 43.97907 | 10.37253 | 21094 ft | 399 kts | 359° |
| 2026-04-24 14:46 | 44.00699 | 10.37024 | 21702 ft | 403 kts | 358° |
| 2026-04-24 14:46 | 44.03477 | 10.36796 | 22275 ft | 407 kts | 359° |
| 2026-04-24 14:46 | 44.06320 | 10.36564 | 22923 ft | 410 kts | 359° |
| 2026-04-24 14:47 | 44.08211 | 10.36409 | 23321 ft | 412 kts | 359° |
| 2026-04-24 14:47 | 44.12072 | 10.36092 | 24011 ft | 417 kts | 359° |
| 2026-04-24 14:47 | 44.14986 | 10.35853 | 24483 ft | 420 kts | 359° |
| 2026-04-24 14:47 | 44.17877 | 10.35660 | 24943 ft | 422 kts | 0° |
| 2026-04-24 14:48 | 44.19864 | 10.35566 | 25263 ft | 423 kts | 0° |
| 2026-04-24 14:48 | 44.21673 | 10.35483 | 25530 ft | 425 kts | 0° |
| 2026-04-24 14:48 | 44.24640 | 10.35329 | 25928 ft | 428 kts | 360° |
| 2026-04-24 14:48 | 44.27632 | 10.35139 | 26346 ft | 431 kts | 359° |
| 2026-04-24 14:49 | 44.30641 | 10.34914 | 26772 ft | 434 kts | 359° |
| 2026-04-24 14:49 | 44.33618 | 10.34668 | 27172 ft | 436 kts | 359° |
| 2026-04-24 14:49 | 44.36673 | 10.34401 | 27551 ft | 439 kts | 359° |
| 2026-04-24 14:49 | 44.39731 | 10.34128 | 27927 ft | 441 kts | 359° |
| 2026-04-24 14:50 | 44.42814 | 10.33849 | 28289 ft | 443 kts | 359° |
| 2026-04-24 14:50 | 44.45901 | 10.33571 | 28660 ft | 446 kts | 359° |
| 2026-04-24 14:50 | 44.49005 | 10.33293 | 28981 ft | 448 kts | 359° |
| 2026-04-24 14:50 | 44.52127 | 10.33014 | 29321 ft | 450 kts | 359° |
| 2026-04-24 14:51 | 44.55261 | 10.32735 | 29669 ft | 452 kts | 359° |
| 2026-04-24 14:51 | 44.58399 | 10.32453 | 30137 ft | 450 kts | 359° |
| 2026-04-24 14:51 | 44.61474 | 10.32171 | 30534 ft | 449 kts | 359° |
| 2026-04-24 14:51 | 44.64589 | 10.31881 | 30919 ft | 447 kts | 359° |
| 2026-04-24 14:52 | 44.67697 | 10.31588 | 31296 ft | 446 kts | 359° |
| 2026-04-24 14:52 | 44.70800 | 10.31295 | 31649 ft | 446 kts | 359° |
| 2026-04-24 14:52 | 44.73893 | 10.31002 | 31949 ft | 446 kts | 359° |
| 2026-04-24 14:53 | 44.80089 | 10.30424 | 32049 ft | 445 kts | 359° |
| 2026-04-24 14:53 | 44.86210 | 10.31005 | 32049 ft | 440 kts | 14° |
| 2026-04-24 14:54 | 44.92080 | 10.33232 | 32041 ft | 440 kts | 18° |
| 2026-04-24 14:54 | 44.94911 | 10.34405 | 32043 ft | 440 kts | 18° |
| 2026-04-24 14:55 | 45.00784 | 10.36713 | 32041 ft | 441 kts | 17° |
| 2026-04-24 14:55 | 45.06733 | 10.38878 | 32042 ft | 441 kts | 16° |
| 2026-04-24 14:56 | 45.12705 | 10.40984 | 32042 ft | 441 kts | 16° |
| 2026-04-24 14:56 | 45.18626 | 10.43067 | 32044 ft | 441 kts | 16° |
| 2026-04-24 14:57 | 45.24603 | 10.45183 | 32045 ft | 441 kts | 16° |
| 2026-04-24 14:57 | 45.30577 | 10.47307 | 32040 ft | 442 kts | 16° |
| 2026-04-24 14:58 | 45.36510 | 10.49422 | 32047 ft | 442 kts | 16° |
| 2026-04-24 14:58 | 45.42479 | 10.51555 | 32047 ft | 442 kts | 16° |
| 2026-04-24 14:59 | 45.48451 | 10.53693 | 32049 ft | 442 kts | 16° |
| 2026-04-24 14:59 | 45.54431 | 10.55840 | 32051 ft | 442 kts | 16° |
| 2026-04-24 15:00 | 45.60386 | 10.57981 | 32053 ft | 442 kts | 16° |
| 2026-04-24 15:00 | 45.66363 | 10.60135 | 32059 ft | 442 kts | 16° |
| 2026-04-24 15:01 | 45.72301 | 10.62280 | 32062 ft | 442 kts | 16° |
| 2026-04-24 15:01 | 45.78229 | 10.64425 | 32068 ft | 443 kts | 16° |
| 2026-04-24 15:02 | 45.84113 | 10.66559 | 32072 ft | 443 kts | 16° |
| 2026-04-24 15:02 | 45.90098 | 10.68736 | 32073 ft | 442 kts | 16° |
| 2026-04-24 15:03 | 45.95935 | 10.71335 | 32075 ft | 441 kts | 23° |
| 2026-04-24 15:03 | 46.01541 | 10.74940 | 32085 ft | 440 kts | 26° |
| 2026-04-24 15:04 | 46.07048 | 10.78693 | 32086 ft | 440 kts | 26° |
| 2026-04-24 15:04 | 46.12596 | 10.82386 | 32106 ft | 439 kts | 25° |
| 2026-04-24 15:05 | 46.18167 | 10.86016 | 32135 ft | 439 kts | 25° |
| 2026-04-24 15:05 | 46.23741 | 10.89631 | 32151 ft | 439 kts | 25° |
| 2026-04-24 15:06 | 46.29328 | 10.93262 | 32168 ft | 439 kts | 25° |
| 2026-04-24 15:06 | 46.34857 | 10.96870 | 32175 ft | 439 kts | 25° |
| 2026-04-24 15:07 | 46.40433 | 11.00518 | 32171 ft | 439 kts | 25° |
| 2026-04-24 15:07 | 46.43222 | 11.02345 | 32051 ft | 439 kts | 25° |
| 2026-04-24 15:07 | 46.46003 | 11.04170 | 32049 ft | 439 kts | 25° |
| 2026-04-24 15:08 | 46.51582 | 11.07837 | 32047 ft | 439 kts | 25° |
| 2026-04-24 15:08 | 46.57123 | 11.11486 | 32047 ft | 439 kts | 25° |
| 2026-04-24 15:09 | 46.62693 | 11.15163 | 32053 ft | 439 kts | 25° |
| 2026-04-24 15:09 | 46.68225 | 11.18822 | 32062 ft | 440 kts | 25° |
| 2026-04-24 15:10 | 46.73814 | 11.22527 | 32057 ft | 440 kts | 25° |
| 2026-04-24 15:10 | 46.79391 | 11.26236 | 32057 ft | 440 kts | 25° |
| 2026-04-24 15:11 | 46.84969 | 11.29953 | 32072 ft | 440 kts | 25° |
| 2026-04-24 15:11 | 46.90519 | 11.33657 | 32070 ft | 441 kts | 25° |
| 2026-04-24 15:12 | 46.96100 | 11.37390 | 32067 ft | 441 kts | 25° |
| 2026-04-24 15:12 | 47.02061 | 11.39330 | 32073 ft | 443 kts | 3° |
| 2026-04-24 15:12 | 47.05153 | 11.39314 | 32084 ft | 444 kts | 359° |
| 2026-04-24 15:13 | 47.11302 | 11.38823 | 32078 ft | 444 kts | 358° |
| 2026-04-24 15:13 | 47.17486 | 11.38455 | 32074 ft | 444 kts | 360° |
| 2026-04-24 15:14 | 47.23667 | 11.38311 | 32075 ft | 444 kts | 1° |
| 2026-04-24 15:14 | 47.29813 | 11.38259 | 32074 ft | 444 kts | 1° |
| 2026-04-24 15:15 | 47.35986 | 11.38216 | 32077 ft | 443 kts | 1° |
| 2026-04-24 15:15 | 47.42168 | 11.38165 | 32083 ft | 444 kts | 1° |
| 2026-04-24 15:16 | 47.48351 | 11.38106 | 32089 ft | 443 kts | 0° |
| 2026-04-24 15:16 | 47.54475 | 11.38047 | 32097 ft | 443 kts | 0° |
| 2026-04-24 15:17 | 47.60651 | 11.37985 | 32108 ft | 443 kts | 0° |
| 2026-04-24 15:17 | 47.64625 | 11.37946 | 32108 ft | 443 kts | 0° |
| 2026-04-24 15:18 | 47.70781 | 11.37884 | 32113 ft | 445 kts | 0° |
| 2026-04-24 15:18 | 47.74696 | 11.37846 | 32113 ft | 445 kts | 0° |
| 2026-04-24 15:19 | 47.80408 | 11.37791 | 32110 ft | 445 kts | 0° |
| 2026-04-24 15:19 | 47.86601 | 11.37692 | 32139 ft | 445 kts | 359° |
| 2026-04-24 15:20 | 47.92754 | 11.37259 | 32147 ft | 444 kts | 357° |
| 2026-04-24 15:20 | 47.98944 | 11.36693 | 32154 ft | 444 kts | 356° |
| 2026-04-24 15:21 | 48.05086 | 11.36146 | 32157 ft | 444 kts | 357° |
| 2026-04-24 15:21 | 48.11265 | 11.35624 | 32157 ft | 444 kts | 357° |
| 2026-04-24 15:22 | 48.17434 | 11.35114 | 32154 ft | 444 kts | 357° |
| 2026-04-24 15:23 | 48.26706 | 11.34346 | 32144 ft | 444 kts | 357° |
| 2026-04-24 15:23 | 48.35934 | 11.33577 | 32133 ft | 444 kts | 357° |
| 2026-04-24 15:25 | 48.50325 | 11.32370 | 32120 ft | 444 kts | 357° |
| 2026-04-24 15:26 | 48.66799 | 11.30979 | 32126 ft | 446 kts | 356° |
| 2026-04-24 15:27 | 48.83817 | 11.29538 | 32125 ft | 446 kts | 356° |
| 2026-04-24 15:29 | 49.02371 | 11.27951 | 32121 ft | 445 kts | 355° |
| 2026-04-24 15:31 | 49.20766 | 11.26366 | 32131 ft | 445 kts | 355° |
| 2026-04-24 15:33 | 49.46561 | 11.24125 | 32129 ft | 445 kts | 355° |
| 2026-04-24 15:33 | 49.55796 | 11.22921 | 32130 ft | 445 kts | 343° |
| 2026-04-24 15:34 | 49.61272 | 11.18706 | 32132 ft | 441 kts | 321° |
| 2026-04-24 15:35 | 49.72745 | 11.03100 | 32126 ft | 440 kts | 320° |
| 2026-04-24 15:36 | 49.75865 | 10.99354 | 32126 ft | 440 kts | 321° |
| 2026-04-24 15:36 | 49.83235 | 10.90781 | 32125 ft | 445 kts | 322° |
| 2026-04-24 15:37 | 49.88174 | 10.85038 | 32130 ft | 447 kts | 321° |
| 2026-04-24 15:37 | 49.93148 | 10.79214 | 32132 ft | 447 kts | 321° |
| 2026-04-24 15:38 | 49.98094 | 10.73394 | 32138 ft | 445 kts | 321° |
| 2026-04-24 15:38 | 50.03005 | 10.67587 | 32138 ft | 445 kts | 321° |
| 2026-04-24 15:39 | 50.07943 | 10.61733 | 32141 ft | 445 kts | 321° |
| 2026-04-24 15:39 | 50.12874 | 10.55872 | 32141 ft | 445 kts | 321° |
| 2026-04-24 15:40 | 50.16143 | 10.51976 | 32143 ft | 447 kts | 321° |
| 2026-04-24 15:40 | 50.20958 | 10.46232 | 32143 ft | 445 kts | 320° |
| 2026-04-24 15:41 | 50.25049 | 10.41342 | 32147 ft | 445 kts | 320° |
| 2026-04-24 15:41 | 50.30768 | 10.34481 | 32148 ft | 445 kts | 320° |
| 2026-04-24 15:42 | 50.35698 | 10.28632 | 32148 ft | 446 kts | 325° |
| 2026-04-24 15:42 | 50.40311 | 10.24919 | 32151 ft | 449 kts | 334° |
| 2026-04-24 15:43 | 50.46115 | 10.21228 | 32156 ft | 450 kts | 335° |
| 2026-04-24 15:43 | 50.51939 | 10.17539 | 32157 ft | 455 kts | 334° |
| 2026-04-24 15:44 | 50.57794 | 10.13660 | 32157 ft | 456 kts | 334° |
| 2026-04-24 15:44 | 50.63620 | 10.09693 | 32165 ft | 456 kts | 333° |
| 2026-04-24 15:45 | 50.69402 | 10.05722 | 32166 ft | 456 kts | 333° |
| 2026-04-24 15:45 | 50.73145 | 10.03146 | 32164 ft | 456 kts | 333° |
| 2026-04-24 15:46 | 50.78955 | 9.99142 | 32163 ft | 456 kts | 333° |
| 2026-04-24 15:46 | 50.84774 | 9.95125 | 32166 ft | 456 kts | 333° |
| 2026-04-24 15:47 | 50.90590 | 9.91099 | 32167 ft | 456 kts | 333° |
| 2026-04-24 15:47 | 50.96407 | 9.87061 | 32161 ft | 456 kts | 333° |
| 2026-04-24 15:48 | 51.02192 | 9.83035 | 32164 ft | 456 kts | 333° |
| 2026-04-24 15:48 | 51.08011 | 9.78974 | 32166 ft | 456 kts | 333° |
| 2026-04-24 15:49 | 51.13828 | 9.74903 | 32163 ft | 456 kts | 333° |
| 2026-04-24 15:49 | 51.19599 | 9.70844 | 32170 ft | 455 kts | 332° |
| 2026-04-24 15:50 | 51.22613 | 9.69247 | 32158 ft | 463 kts | 349° |
| 2026-04-24 15:50 | 51.25853 | 9.69236 | 32170 ft | 470 kts | 2° |
| 2026-04-24 15:50 | 51.32331 | 9.71048 | 32170 ft | 475 kts | 7° |
| 2026-04-24 15:51 | 51.38828 | 9.72909 | 32175 ft | 473 kts | 4° |
| 2026-04-24 15:51 | 51.45349 | 9.74258 | 32176 ft | 472 kts | 2° |
| 2026-04-24 15:52 | 51.51882 | 9.75422 | 32171 ft | 472 kts | 2° |
| 2026-04-24 15:52 | 51.58417 | 9.76632 | 32168 ft | 473 kts | 2° |
| 2026-04-24 15:53 | 51.64128 | 9.77711 | 32178 ft | 473 kts | 2° |
| 2026-04-24 15:53 | 51.70666 | 9.78957 | 32167 ft | 473 kts | 2° |
| 2026-04-24 15:54 | 51.77195 | 9.80204 | 32163 ft | 473 kts | 2° |
| 2026-04-24 15:54 | 51.83731 | 9.81454 | 32165 ft | 473 kts | 2° |
| 2026-04-24 15:55 | 51.90263 | 9.82710 | 32112 ft | 472 kts | 2° |
| 2026-04-24 15:55 | 51.93517 | 9.83340 | 31717 ft | 472 kts | 2° |
| 2026-04-24 15:55 | 51.96787 | 9.83978 | 31217 ft | 473 kts | 2° |
| 2026-04-24 15:56 | 52.00058 | 9.84625 | 30728 ft | 474 kts | 2° |
| 2026-04-24 15:56 | 52.03342 | 9.85282 | 30240 ft | 475 kts | 2° |
| 2026-04-24 15:56 | 52.06619 | 9.85943 | 29681 ft | 473 kts | 3° |
| 2026-04-24 15:56 | 52.09866 | 9.86777 | 29120 ft | 473 kts | 9° |
| 2026-04-24 15:57 | 52.13073 | 9.87941 | 28586 ft | 473 kts | 8° |
| 2026-04-24 15:57 | 52.16284 | 9.89042 | 28060 ft | 471 kts | 7° |
| 2026-04-24 15:57 | 52.19515 | 9.90115 | 27535 ft | 476 kts | 7° |
| 2026-04-24 15:57 | 52.22770 | 9.91168 | 27019 ft | 476 kts | 7° |
| 2026-04-24 15:58 | 52.26007 | 9.92199 | 26514 ft | 472 kts | 7° |
| 2026-04-24 15:58 | 52.29218 | 9.93206 | 26016 ft | 468 kts | 7° |
| 2026-04-24 15:58 | 52.32404 | 9.94196 | 25532 ft | 464 kts | 7° |
| 2026-04-24 15:58 | 52.35567 | 9.95172 | 25106 ft | 461 kts | 7° |
| 2026-04-24 15:59 | 52.38705 | 9.96138 | 24667 ft | 457 kts | 7° |
| 2026-04-24 15:59 | 52.41821 | 9.97097 | 24210 ft | 454 kts | 7° |
| 2026-04-24 15:59 | 52.44910 | 9.98046 | 23746 ft | 454 kts | 7° |
| 2026-04-24 15:59 | 52.48064 | 9.99020 | 23210 ft | 465 kts | 7° |
| 2026-04-24 16:00 | 52.51257 | 10.00025 | 22671 ft | 468 kts | 7° |
| 2026-04-24 16:00 | 52.54446 | 10.01035 | 22145 ft | 466 kts | 7° |
| 2026-04-24 16:00 | 52.57618 | 10.02035 | 21626 ft | 462 kts | 7° |
| 2026-04-24 16:00 | 52.60768 | 10.03023 | 21131 ft | 459 kts | 7° |
| 2026-04-24 16:01 | 52.63890 | 10.03998 | 20631 ft | 455 kts | 7° |
| 2026-04-24 16:01 | 52.66990 | 10.04965 | 20133 ft | 452 kts | 8° |
| 2026-04-24 16:01 | 52.70067 | 10.05923 | 19646 ft | 449 kts | 8° |
| 2026-04-24 16:01 | 52.73129 | 10.06877 | 19177 ft | 446 kts | 8° |
| 2026-04-24 16:02 | 52.76129 | 10.07813 | 18734 ft | 443 kts | 8° |
| 2026-04-24 16:02 | 52.79180 | 10.08766 | 18236 ft | 440 kts | 8° |
| 2026-04-24 16:02 | 52.82132 | 10.09690 | 17712 ft | 436 kts | 8° |
| 2026-04-24 16:02 | 52.85142 | 10.10635 | 17301 ft | 431 kts | 8° |
| 2026-04-24 16:03 | 52.88071 | 10.11553 | 17187 ft | 429 kts | 8° |
| 2026-04-24 16:03 | 52.91002 | 10.12470 | 17183 ft | 427 kts | 8° |
| 2026-04-24 16:03 | 52.92934 | 10.13075 | 17182 ft | 427 kts | 8° |
| 2026-04-24 16:03 | 52.94710 | 10.13631 | 17056 ft | 425 kts | 8° |
| 2026-04-24 16:04 | 52.97601 | 10.14539 | 16601 ft | 423 kts | 8° |
| 2026-04-24 16:04 | 53.00466 | 10.15443 | 16103 ft | 421 kts | 8° |
| 2026-04-24 16:04 | 53.03330 | 10.16350 | 15608 ft | 418 kts | 8° |
| 2026-04-24 16:04 | 53.06175 | 10.17253 | 15119 ft | 414 kts | 8° |
| 2026-04-24 16:05 | 53.11781 | 10.19034 | 14165 ft | 407 kts | 8° |
| 2026-04-24 16:05 | 53.14547 | 10.19913 | 13652 ft | 403 kts | 8° |
| 2026-04-24 16:06 | 53.19998 | 10.21648 | 12614 ft | 395 kts | 9° |
| 2026-04-24 16:06 | 53.22681 | 10.22504 | 12034 ft | 391 kts | 9° |
| 2026-04-24 16:06 | 53.27962 | 10.24191 | 11029 ft | 383 kts | 9° |
| 2026-04-24 16:07 | 53.30561 | 10.25023 | 10549 ft | 379 kts | 8° |
| 2026-04-24 16:07 | 53.33133 | 10.25911 | 10075 ft | 375 kts | 11° |
| 2026-04-24 16:07 | 53.38136 | 10.28153 | 9036 ft | 369 kts | 13° |
| 2026-04-24 16:08 | 53.40590 | 10.29335 | 8522 ft | 365 kts | 13° |
| 2026-04-24 16:08 | 53.45478 | 10.31374 | 7521 ft | 358 kts | 11° |
| 2026-04-24 16:09 | 53.50303 | 10.33189 | 6558 ft | 353 kts | 11° |
| 2026-04-24 16:09 | 53.52694 | 10.34058 | 6049 ft | 350 kts | 10° |
| 2026-04-24 16:09 | 53.55062 | 10.34911 | 5540 ft | 348 kts | 10° |
| 2026-04-24 16:09 | 53.57438 | 10.35646 | 5051 ft | 346 kts | 7° |
| 2026-04-24 16:10 | 53.64562 | 10.37023 | 3989 ft | 343 kts | 4° |
| 2026-04-24 16:11 | 53.67604 | 10.37531 | 3980 ft | 342 kts | 3° |
| 2026-04-24 16:11 | 53.69969 | 10.37560 | 3882 ft | 334 kts | 352° |
| 2026-04-24 16:11 | 53.72150 | 10.36809 | 3463 ft | 308 kts | 342° |
| 2026-04-24 16:12 | 53.75844 | 10.34367 | 2967 ft | 259 kts | 331° |
| 2026-04-24 16:12 | 53.77155 | 10.32640 | 2947 ft | 227 kts | 309° |
| 2026-04-24 16:12 | 53.77371 | 10.28051 | 3025 ft | 209 kts | 247° |
| 2026-04-24 16:13 | 53.76514 | 10.26027 | 3007 ft | 214 kts | 236° |
| 2026-04-24 16:13 | 53.74564 | 10.21993 | 2985 ft | 226 kts | 235° |
| 2026-04-24 16:14 | 53.72533 | 10.17927 | 2900 ft | 227 kts | 234° |
| 2026-04-24 16:14 | 53.71477 | 10.15948 | 2608 ft | 225 kts | 234° |
| 2026-04-24 16:14 | 53.69601 | 10.12092 | 1980 ft | 207 kts | 236° |
| 2026-04-24 16:15 | 53.68996 | 10.10865 | 1791 ft | 195 kts | 236° |
| 2026-04-24 16:15 | 53.67192 | 10.07235 | 1228 ft | 157 kts | 238° |
| 2026-04-24 16:16 | 53.65796 | 10.04458 | 798 ft | 151 kts | 236° |
| 2026-04-24 16:16 | 53.65154 | 10.03135 | 630 ft | 141 kts | 239° |
| 2026-04-24 16:17 | 53.63429 | 9.99628 | 51 ft | 114 kts | 236° |
| 2026-04-24 16:17 | 53.62771 | 9.98477 | 54 ft | 12 kts | 187° |
| 2026-04-24 16:18 | 53.62755 | 9.98475 | 50 ft | 3 kts | 184° |
| 2026-04-24 16:18 | 53.62716 | 9.98475 | 54 ft | 5 kts | 175° |
| 2026-04-24 16:18 | 53.62668 | 9.98489 | 54 ft | 11 kts | 163° |
| 2026-04-24 16:19 | 53.62519 | 9.98664 | 51 ft | 9 kts | 98° |
| 2026-04-24 16:19 | 53.62525 | 9.98761 | 52 ft | 7 kts | 79° |
| 2026-04-24 16:20 | 53.62550 | 9.98988 | 54 ft | 12 kts | 79° |
| 2026-04-24 16:20 | 53.62588 | 9.99323 | 51 ft | 16 kts | 77° |
| 2026-04-24 16:20 | 53.62612 | 9.99520 | 49 ft | 18 kts | 79° |
| 2026-04-24 16:21 | 53.62723 | 9.99884 | 52 ft | 18 kts | 27° |
| 2026-04-24 16:21 | 53.62781 | 9.99938 | 51 ft | 0 kts | 32° |
| 2026-04-24 16:22 | 53.62786 | 9.99942 | 52 ft | 1 kts | 32° |
| 2026-04-24 16:22 | 53.62825 | 9.99983 | 50 ft | 6 kts | 32° |
| 2026-04-24 16:22 | 53.62847 | 10.00039 | 54 ft | 6 kts | 88° |
| 2026-04-24 16:23 | 53.62830 | 10.00079 | 50 ft | 4 kts | 149° |
| 2026-04-24 16:23 | 53.62800 | 10.00109 | 51 ft | 6 kts | 149° |
| 2026-04-24 16:23 | 53.62754 | 10.00153 | 53 ft | 9 kts | 152° |
| 2026-04-24 16:24 | 53.62712 | 10.00216 | 49 ft | 4 kts | 97° |
| 2026-04-24 16:24 | 53.62715 | 10.00232 | 49 ft | 3 kts | 64° |
| 2026-04-24 16:24 | 53.62727 | 10.00272 | 49 ft | 5 kts | 62° |
| 2026-04-24 16:24 | 53.62730 | 10.00281 | 51 ft | 0 kts | 62° |